sensor_id;sensor_type;location;lat;lon;timestamp;temperature;humidity
7163;DHT22;3623;47.098;15.446;2023-02-11T00:00:41;-1.60;99.90
7163;DHT22;3623;47.098;15.446;2023-02-11T00:03:08;-2.40;99.90
7163;DHT22;3623;47.098;15.446;2023-02-11T00:05:35;-1.40;99.90
7163;DHT22;3623;47.098;15.446;2023-02-11T00:08:04;-2.30;99.90
7163;DHT22;3623;47.098;15.446;2023-02-11T00:10:31;-2.20;99.90
7163;DHT22;3623;47.098;15.446;2023-02-11T00:12:59;-2.40;99.90
7163;DHT22;3623;47.098;15.446;2023-02-11T00:15:26;-2.10;99.90
7163;DHT22;3623;47.098;15.446;2023-02-11T00:17:53;-2.30;99.90
7163;DHT22;3623;47.098;15.446;2023-02-11T00:20:20;-2.50;99.90
7163;DHT22;3623;47.098;15.446;2023-02-11T00:22:47;-2.50;99.90
7163;DHT22;3623;47.098;15.446;2023-02-11T00:25:15;-2.30;99.90
7163;DHT22;3623;47.098;15.446;2023-02-11T00:27:42;-2.40;99.90
7163;DHT22;3623;47.098;15.446;2023-02-11T00:30:10;-1.70;99.90
7163;DHT22;3623;47.098;15.446;2023-02-11T00:32:37;-2.10;99.90
7163;DHT22;3623;47.098;15.446;2023-02-11T00:35:05;-1.90;99.90
7163;DHT22;3623;47.098;15.446;2023-02-11T00:37:32;-1.10;99.90
7163;DHT22;3623;47.098;15.446;2023-02-11T00:40:01;-2.60;99.90
7163;DHT22;3623;47.098;15.446;2023-02-11T00:42:30;-2.40;99.90
7163;DHT22;3623;47.098;15.446;2023-02-11T00:44:57;-2.60;99.90
7163;DHT22;3623;47.098;15.446;2023-02-11T00:47:24;-2.60;99.90
7163;DHT22;3623;47.098;15.446;2023-02-11T00:49:51;-2.60;99.90
7163;DHT22;3623;47.098;15.446;2023-02-11T00:52:18;-2.70;99.90
7163;DHT22;3623;47.098;15.446;2023-02-11T00:54:45;-2.60;99.90
7163;DHT22;3623;47.098;15.446;2023-02-11T00:57:12;-2.70;99.90
7163;DHT22;3623;47.098;15.446;2023-02-11T00:59:41;-2.60;99.90
7163;DHT22;3623;47.098;15.446;2023-02-11T01:02:08;-2.70;99.90
7163;DHT22;3623;47.098;15.446;2023-02-11T01:04:35;-2.70;99.90
7163;DHT22;3623;47.098;15.446;2023-02-11T01:07:02;-2.70;99.90
7163;DHT22;3623;47.098;15.446;2023-02-11T01:09:29;-2.70;99.90
7163;DHT22;3623;47.098;15.446;2023-02-11T01:11:56;-2.70;99.90
7163;DHT22;3623;47.098;15.446;2023-02-11T01:14:23;-2.50;99.90
7163;DHT22;3623;47.098;15.446;2023-02-11T01:16:51;-2.60;99.90
7163;DHT22;3623;47.098;15.446;2023-02-11T01:19:18;-2.60;99.90
7163;DHT22;3623;47.098;15.446;2023-02-11T01:21:45;-2.20;99.90
7163;DHT22;3623;47.098;15.446;2023-02-11T01:24:13;-2.60;99.90
7163;DHT22;3623;47.098;15.446;2023-02-11T01:26:40;-2.60;99.90
7163;DHT22;3623;47.098;15.446;2023-02-11T01:29:07;-2.80;99.90
7163;DHT22;3623;47.098;15.446;2023-02-11T01:31:34;-2.70;99.90
7163;DHT22;3623;47.098;15.446;2023-02-11T01:34:02;-2.80;99.90
7163;DHT22;3623;47.098;15.446;2023-02-11T01:36:29;-2.80;99.90
7163;DHT22;3623;47.098;15.446;2023-02-11T01:38:56;-2.80;99.90
7163;DHT22;3623;47.098;15.446;2023-02-11T01:41:23;-2.80;99.90
7163;DHT22;3623;47.098;15.446;2023-02-11T01:43:50;-1.80;99.90
7163;DHT22;3623;47.098;15.446;2023-02-11T01:46:31;-2.50;99.90
7163;DHT22;3623;47.098;15.446;2023-02-11T01:49:05;-2.80;99.90
7163;DHT22;3623;47.098;15.446;2023-02-11T01:51:36;-2.70;99.90
7163;DHT22;3623;47.098;15.446;2023-02-11T01:54:06;-2.20;99.90
7163;DHT22;3623;47.098;15.446;2023-02-11T01:56:54;-2.80;99.90
7163;DHT22;3623;47.098;15.446;2023-02-11T01:59:45;-2.80;99.90
7163;DHT22;3623;47.098;15.446;2023-02-11T02:02:16;-2.70;99.90
7163;DHT22;3623;47.098;15.446;2023-02-11T02:04:54;-1.80;99.90
7163;DHT22;3623;47.098;15.446;2023-02-11T02:07:30;-2.80;99.90
7163;DHT22;3623;47.098;15.446;2023-02-11T02:10:03;-2.80;99.90
7163;DHT22;3623;47.098;15.446;2023-02-11T02:12:30;-2.60;99.90
7163;DHT22;3623;47.098;15.446;2023-02-11T02:15:20;-2.90;99.90
7163;DHT22;3623;47.098;15.446;2023-02-11T02:17:56;-2.80;99.90
7163;DHT22;3623;47.098;15.446;2023-02-11T02:23:37;-2.80;99.90
7163;DHT22;3623;47.098;15.446;2023-02-11T02:26:53;-2.90;99.90
7163;DHT22;3623;47.098;15.446;2023-02-11T02:33:11;-2.80;99.90
7163;DHT22;3623;47.098;15.446;2023-02-11T02:35:45;-2.80;99.90
7163;DHT22;3623;47.098;15.446;2023-02-11T02:38:18;-3.00;99.90
7163;DHT22;3623;47.098;15.446;2023-02-11T02:40:50;-3.00;99.90
7163;DHT22;3623;47.098;15.446;2023-02-11T02:43:20;-3.10;99.90
7163;DHT22;3623;47.098;15.446;2023-02-11T02:45:48;-3.00;99.90
7163;DHT22;3623;47.098;15.446;2023-02-11T02:48:27;-2.40;99.90
7163;DHT22;3623;47.098;15.446;2023-02-11T02:51:07;-2.60;99.90
7163;DHT22;3623;47.098;15.446;2023-02-11T02:53:47;-3.00;99.90
7163;DHT22;3623;47.098;15.446;2023-02-11T02:56:24;-3.00;99.90
7163;DHT22;3623;47.098;15.446;2023-02-11T02:59:12;-3.00;99.90
7163;DHT22;3623;47.098;15.446;2023-02-11T03:01:50;-3.00;99.90
7163;DHT22;3623;47.098;15.446;2023-02-11T03:04:24;-3.00;99.90
7163;DHT22;3623;47.098;15.446;2023-02-11T03:06:57;-3.00;99.90
7163;DHT22;3623;47.098;15.446;2023-02-11T03:09:30;-3.00;99.90
7163;DHT22;3623;47.098;15.446;2023-02-11T03:11:58;-3.00;99.90
7163;DHT22;3623;47.098;15.446;2023-02-11T03:14:27;-3.00;99.90
7163;DHT22;3623;47.098;15.446;2023-02-11T03:16:57;-3.10;99.90
7163;DHT22;3623;47.098;15.446;2023-02-11T03:19:29;-3.10;99.90
7163;DHT22;3623;47.098;15.446;2023-02-11T03:21:58;-3.00;99.90
7163;DHT22;3623;47.098;15.446;2023-02-11T03:24:30;-3.20;99.90
7163;DHT22;3623;47.098;15.446;2023-02-11T03:27:04;-3.20;99.90
7163;DHT22;3623;47.098;15.446;2023-02-11T03:29:37;-3.20;99.90
7163;DHT22;3623;47.098;15.446;2023-02-11T03:32:11;-3.30;99.90
7163;DHT22;3623;47.098;15.446;2023-02-11T03:34:46;-3.30;99.90
7163;DHT22;3623;47.098;15.446;2023-02-11T03:37:18;-3.20;99.90
7163;DHT22;3623;47.098;15.446;2023-02-11T03:39:49;-3.40;99.90
7163;DHT22;3623;47.098;15.446;2023-02-11T03:42:17;-3.40;99.90
7163;DHT22;3623;47.098;15.446;2023-02-11T03:44:49;-3.50;99.90
7163;DHT22;3623;47.098;15.446;2023-02-11T03:47:20;-3.50;99.90
7163;DHT22;3623;47.098;15.446;2023-02-11T03:49:51;-3.50;99.90
7163;DHT22;3623;47.098;15.446;2023-02-11T03:52:20;-3.10;99.90
7163;DHT22;3623;47.098;15.446;2023-02-11T03:54:50;-3.50;99.90
7163;DHT22;3623;47.098;15.446;2023-02-11T03:57:19;-3.40;99.90
7163;DHT22;3623;47.098;15.446;2023-02-11T03:59:51;-3.40;99.90
7163;DHT22;3623;47.098;15.446;2023-02-11T04:02:19;-3.40;99.90
7163;DHT22;3623;47.098;15.446;2023-02-11T04:04:47;-3.40;99.90
7163;DHT22;3623;47.098;15.446;2023-02-11T04:07:15;-3.40;99.90
7163;DHT22;3623;47.098;15.446;2023-02-11T04:09:42;-3.50;99.90
7163;DHT22;3623;47.098;15.446;2023-02-11T04:12:09;-2.80;99.90
7163;DHT22;3623;47.098;15.446;2023-02-11T04:14:36;-3.40;99.90
7163;DHT22;3623;47.098;15.446;2023-02-11T04:17:04;-3.50;99.90
7163;DHT22;3623;47.098;15.446;2023-02-11T04:19:31;-3.50;99.90
7163;DHT22;3623;47.098;15.446;2023-02-11T04:21:58;-3.50;99.90
7163;DHT22;3623;47.098;15.446;2023-02-11T04:24:26;-3.30;99.90
7163;DHT22;3623;47.098;15.446;2023-02-11T04:26:53;-3.70;99.90
7163;DHT22;3623;47.098;15.446;2023-02-11T04:29:21;-3.60;99.90
7163;DHT22;3623;47.098;15.446;2023-02-11T04:31:48;-3.20;99.90
7163;DHT22;3623;47.098;15.446;2023-02-11T04:34:16;-3.50;99.90
7163;DHT22;3623;47.098;15.446;2023-02-11T04:36:43;-3.50;99.90
7163;DHT22;3623;47.098;15.446;2023-02-11T04:39:10;-3.50;99.90
7163;DHT22;3623;47.098;15.446;2023-02-11T04:41:39;-3.30;99.90
7163;DHT22;3623;47.098;15.446;2023-02-11T04:44:06;-3.60;99.90
7163;DHT22;3623;47.098;15.446;2023-02-11T04:46:33;-3.50;99.90
7163;DHT22;3623;47.098;15.446;2023-02-11T04:49:00;-3.60;99.90
7163;DHT22;3623;47.098;15.446;2023-02-11T04:51:27;-3.60;99.90
7163;DHT22;3623;47.098;15.446;2023-02-11T04:53:54;-3.60;99.90
7163;DHT22;3623;47.098;15.446;2023-02-11T04:56:21;-3.60;99.90
7163;DHT22;3623;47.098;15.446;2023-02-11T04:58:50;-3.50;99.90
7163;DHT22;3623;47.098;15.446;2023-02-11T05:01:17;-3.70;99.90
7163;DHT22;3623;47.098;15.446;2023-02-11T05:03:45;-3.50;99.90
7163;DHT22;3623;47.098;15.446;2023-02-11T05:06:12;-3.50;99.90
7163;DHT22;3623;47.098;15.446;2023-02-11T05:08:39;-3.50;99.90
7163;DHT22;3623;47.098;15.446;2023-02-11T05:11:07;-3.60;99.90
7163;DHT22;3623;47.098;15.446;2023-02-11T05:13:34;-3.40;99.90
7163;DHT22;3623;47.098;15.446;2023-02-11T05:16:03;-3.60;99.90
7163;DHT22;3623;47.098;15.446;2023-02-11T05:18:30;-3.90;99.90
7163;DHT22;3623;47.098;15.446;2023-02-11T05:20:57;-3.60;99.90
7163;DHT22;3623;47.098;15.446;2023-02-11T05:23:24;-3.70;99.90
7163;DHT22;3623;47.098;15.446;2023-02-11T05:25:51;-3.80;99.90
7163;DHT22;3623;47.098;15.446;2023-02-11T05:28:18;-3.40;99.90
7163;DHT22;3623;47.098;15.446;2023-02-11T05:30:45;-3.60;99.90
7163;DHT22;3623;47.098;15.446;2023-02-11T05:33:14;-3.70;99.90
7163;DHT22;3623;47.098;15.446;2023-02-11T05:35:41;-3.60;99.90
7163;DHT22;3623;47.098;15.446;2023-02-11T05:38:08;-3.70;99.90
7163;DHT22;3623;47.098;15.446;2023-02-11T05:40:35;-3.60;99.90
7163;DHT22;3623;47.098;15.446;2023-02-11T05:43:02;-4.00;99.90
7163;DHT22;3623;47.098;15.446;2023-02-11T05:45:29;-3.60;99.90
7163;DHT22;3623;47.098;15.446;2023-02-11T05:47:56;-3.40;99.90
7163;DHT22;3623;47.098;15.446;2023-02-11T05:50:25;-3.40;99.90
7163;DHT22;3623;47.098;15.446;2023-02-11T05:52:52;-3.50;99.90
7163;DHT22;3623;47.098;15.446;2023-02-11T05:55:19;-3.50;99.90
7163;DHT22;3623;47.098;15.446;2023-02-11T05:57:46;-3.50;99.90
7163;DHT22;3623;47.098;15.446;2023-02-11T06:00:14;-3.30;99.90
7163;DHT22;3623;47.098;15.446;2023-02-11T06:02:41;-3.30;99.90
7163;DHT22;3623;47.098;15.446;2023-02-11T06:05:09;-3.50;99.90
7163;DHT22;3623;47.098;15.446;2023-02-11T06:07:37;-3.40;99.90
7163;DHT22;3623;47.098;15.446;2023-02-11T06:10:05;-3.40;99.90
7163;DHT22;3623;47.098;15.446;2023-02-11T06:12:32;-3.40;99.90
7163;DHT22;3623;47.098;15.446;2023-02-11T06:15:00;-3.40;99.90
7163;DHT22;3623;47.098;15.446;2023-02-11T06:17:27;-3.60;99.90
7163;DHT22;3623;47.098;15.446;2023-02-11T06:19:56;-3.50;99.90
7163;DHT22;3623;47.098;15.446;2023-02-11T06:22:23;-3.60;99.90
7163;DHT22;3623;47.098;15.446;2023-02-11T06:24:52;-3.40;99.90
7163;DHT22;3623;47.098;15.446;2023-02-11T06:27:19;-3.40;99.90
7163;DHT22;3623;47.098;15.446;2023-02-11T06:29:46;-3.40;99.90
7163;DHT22;3623;47.098;15.446;2023-02-11T06:32:14;-4.10;99.90
7163;DHT22;3623;47.098;15.446;2023-02-11T06:34:41;-3.30;99.90
7163;DHT22;3623;47.098;15.446;2023-02-11T06:37:08;-3.40;99.90
7163;DHT22;3623;47.098;15.446;2023-02-11T06:39:35;-3.10;99.90
7163;DHT22;3623;47.098;15.446;2023-02-11T06:42:04;-3.30;99.90
7163;DHT22;3623;47.098;15.446;2023-02-11T06:44:31;-3.00;99.90
7163;DHT22;3623;47.098;15.446;2023-02-11T06:46:58;-3.10;99.90
7163;DHT22;3623;47.098;15.446;2023-02-11T06:49:25;-2.90;99.90
7163;DHT22;3623;47.098;15.446;2023-02-11T06:51:52;-2.90;99.90
7163;DHT22;3623;47.098;15.446;2023-02-11T06:54:20;-2.70;99.90
7163;DHT22;3623;47.098;15.446;2023-02-11T06:56:47;-2.70;99.90
7163;DHT22;3623;47.098;15.446;2023-02-11T06:59:16;-2.60;99.90
7163;DHT22;3623;47.098;15.446;2023-02-11T07:01:43;-2.40;99.90
7163;DHT22;3623;47.098;15.446;2023-02-11T07:04:10;-2.40;99.90
7163;DHT22;3623;47.098;15.446;2023-02-11T07:06:39;-2.40;99.90
7163;DHT22;3623;47.098;15.446;2023-02-11T07:09:07;-2.30;99.90
7163;DHT22;3623;47.098;15.446;2023-02-11T07:11:34;-2.20;99.90
7163;DHT22;3623;47.098;15.446;2023-02-11T07:14:03;-2.20;99.90
7163;DHT22;3623;47.098;15.446;2023-02-11T07:16:31;-2.20;99.90
7163;DHT22;3623;47.098;15.446;2023-02-11T07:18:58;-2.20;99.90
7163;DHT22;3623;47.098;15.446;2023-02-11T07:21:26;-2.20;99.90
7163;DHT22;3623;47.098;15.446;2023-02-11T07:23:53;-2.10;99.90
7163;DHT22;3623;47.098;15.446;2023-02-11T07:26:22;-2.10;99.90
7163;DHT22;3623;47.098;15.446;2023-02-11T07:28:51;-2.10;99.90
7163;DHT22;3623;47.098;15.446;2023-02-11T07:31:20;-2.20;99.90
7163;DHT22;3623;47.098;15.446;2023-02-11T07:33:50;-2.20;99.90
7163;DHT22;3623;47.098;15.446;2023-02-11T07:36:17;-2.00;99.90
7163;DHT22;3623;47.098;15.446;2023-02-11T07:38:45;-2.10;99.90
7163;DHT22;3623;47.098;15.446;2023-02-11T07:41:14;-1.80;99.90
7163;DHT22;3623;47.098;15.446;2023-02-11T07:43:41;-2.00;99.90
7163;DHT22;3623;47.098;15.446;2023-02-11T07:46:14;-1.30;99.90
7163;DHT22;3623;47.098;15.446;2023-02-11T07:48:42;-1.70;99.90
7163;DHT22;3623;47.098;15.446;2023-02-11T07:51:12;-1.70;99.90
7163;DHT22;3623;47.098;15.446;2023-02-11T07:53:40;-1.00;99.90
7163;DHT22;3623;47.098;15.446;2023-02-11T07:56:09;-1.40;99.90
7163;DHT22;3623;47.098;15.446;2023-02-11T07:58:36;-1.80;99.90
7163;DHT22;3623;47.098;15.446;2023-02-11T08:01:05;-1.30;99.90
7163;DHT22;3623;47.098;15.446;2023-02-11T08:03:33;-1.60;99.90
7163;DHT22;3623;47.098;15.446;2023-02-11T08:06:03;-1.50;99.90
7163;DHT22;3623;47.098;15.446;2023-02-11T08:08:31;-1.40;99.90
7163;DHT22;3623;47.098;15.446;2023-02-11T08:11:05;-1.30;99.90
7163;DHT22;3623;47.098;15.446;2023-02-11T08:13:32;-1.10;99.90
7163;DHT22;3623;47.098;15.446;2023-02-11T08:15:59;-0.60;99.90
7163;DHT22;3623;47.098;15.446;2023-02-11T08:18:26;-1.00;99.90
7163;DHT22;3623;47.098;15.446;2023-02-11T08:20:53;-1.00;99.90
7163;DHT22;3623;47.098;15.446;2023-02-11T08:23:20;-0.90;99.90
7163;DHT22;3623;47.098;15.446;2023-02-11T08:25:49;-0.70;99.90
7163;DHT22;3623;47.098;15.446;2023-02-11T08:28:16;-0.70;99.90
7163;DHT22;3623;47.098;15.446;2023-02-11T08:30:43;-0.70;99.90
7163;DHT22;3623;47.098;15.446;2023-02-11T08:33:10;-0.50;99.90
7163;DHT22;3623;47.098;15.446;2023-02-11T08:35:37;-0.10;99.90
7163;DHT22;3623;47.098;15.446;2023-02-11T08:38:05;-0.30;99.90
7163;DHT22;3623;47.098;15.446;2023-02-11T08:40:32;0.30;99.90
7163;DHT22;3623;47.098;15.446;2023-02-11T08:43:00;-0.30;99.90
7163;DHT22;3623;47.098;15.446;2023-02-11T08:45:27;0.20;99.90
7163;DHT22;3623;47.098;15.446;2023-02-11T08:47:54;0.40;99.90
7163;DHT22;3623;47.098;15.446;2023-02-11T08:50:21;0.70;99.90
7163;DHT22;3623;47.098;15.446;2023-02-11T08:52:48;0.90;99.90
7163;DHT22;3623;47.098;15.446;2023-02-11T08:55:17;1.30;99.90
7163;DHT22;3623;47.098;15.446;2023-02-11T08:57:44;1.20;99.90
7163;DHT22;3623;47.098;15.446;2023-02-11T09:00:14;1.40;99.90
7163;DHT22;3623;47.098;15.446;2023-02-11T09:02:41;1.70;99.90
7163;DHT22;3623;47.098;15.446;2023-02-11T09:05:08;1.60;99.90
7163;DHT22;3623;47.098;15.446;2023-02-11T09:07:35;1.80;99.90
7163;DHT22;3623;47.098;15.446;2023-02-11T09:10:03;1.70;99.90
7163;DHT22;3623;47.098;15.446;2023-02-11T09:12:31;1.70;99.90
7163;DHT22;3623;47.098;15.446;2023-02-11T09:14:58;2.20;99.90
7163;DHT22;3623;47.098;15.446;2023-02-11T09:17:27;1.50;99.90
7163;DHT22;3623;47.098;15.446;2023-02-11T09:19:54;1.80;99.90
7163;DHT22;3623;47.098;15.446;2023-02-11T09:22:21;2.20;99.90
7163;DHT22;3623;47.098;15.446;2023-02-11T09:24:48;2.10;99.90
7163;DHT22;3623;47.098;15.446;2023-02-11T09:27:15;2.30;99.90
7163;DHT22;3623;47.098;15.446;2023-02-11T09:29:42;2.90;99.90
7163;DHT22;3623;47.098;15.446;2023-02-11T09:32:09;3.30;99.90
7163;DHT22;3623;47.098;15.446;2023-02-11T09:34:37;4.40;99.90
7163;DHT22;3623;47.098;15.446;2023-02-11T09:37:04;4.80;99.90
7163;DHT22;3623;47.098;15.446;2023-02-11T09:39:31;5.90;99.90
7163;DHT22;3623;47.098;15.446;2023-02-11T09:45:02;5.30;99.90
7163;DHT22;3623;47.098;15.446;2023-02-11T09:47:31;4.60;99.90
7163;DHT22;3623;47.098;15.446;2023-02-11T09:50:04;4.40;99.90
7163;DHT22;3623;47.098;15.446;2023-02-11T09:52:36;4.10;99.90
7163;DHT22;3623;47.098;15.446;2023-02-11T09:55:13;3.90;99.90
7163;DHT22;3623;47.098;15.446;2023-02-11T09:57:43;3.90;99.90
7163;DHT22;3623;47.098;15.446;2023-02-11T10:00:21;4.00;99.90
7163;DHT22;3623;47.098;15.446;2023-02-11T10:03:25;4.40;99.90
7163;DHT22;3623;47.098;15.446;2023-02-11T10:06:14;4.50;99.90
7163;DHT22;3623;47.098;15.446;2023-02-11T10:08:52;4.50;99.90
7163;DHT22;3623;47.098;15.446;2023-02-11T10:11:28;4.40;99.90
7163;DHT22;3623;47.098;15.446;2023-02-11T10:14:02;4.80;99.90
7163;DHT22;3623;47.098;15.446;2023-02-11T10:16:44;4.90;99.90
7163;DHT22;3623;47.098;15.446;2023-02-11T10:19:33;5.00;99.90
7163;DHT22;3623;47.098;15.446;2023-02-11T10:22:10;5.20;99.90
7163;DHT22;3623;47.098;15.446;2023-02-11T10:24:40;5.30;99.90
7163;DHT22;3623;47.098;15.446;2023-02-11T10:27:15;5.40;99.90
7163;DHT22;3623;47.098;15.446;2023-02-11T10:29:46;5.60;99.90
7163;DHT22;3623;47.098;15.446;2023-02-11T10:32:22;5.50;99.90
7163;DHT22;3623;47.098;15.446;2023-02-11T10:34:55;6.30;99.90
7163;DHT22;3623;47.098;15.446;2023-02-11T10:37:25;6.10;99.90
7163;DHT22;3623;47.098;15.446;2023-02-11T10:39:52;6.40;99.90
7163;DHT22;3623;47.098;15.446;2023-02-11T10:42:19;6.60;99.90
7163;DHT22;3623;47.098;15.446;2023-02-11T10:44:56;6.50;99.90
7163;DHT22;3623;47.098;15.446;2023-02-11T10:47:26;6.70;99.90
7163;DHT22;3623;47.098;15.446;2023-02-11T10:49:54;6.70;99.90
7163;DHT22;3623;47.098;15.446;2023-02-11T10:52:29;7.10;99.90
7163;DHT22;3623;47.098;15.446;2023-02-11T10:55:03;7.40;99.90
7163;DHT22;3623;47.098;15.446;2023-02-11T10:57:34;8.00;99.90
7163;DHT22;3623;47.098;15.446;2023-02-11T11:00:14;9.10;99.90
7163;DHT22;3623;47.098;15.446;2023-02-11T11:02:52;9.00;99.90
7163;DHT22;3623;47.098;15.446;2023-02-11T11:05:27;9.10;99.90
7163;DHT22;3623;47.098;15.446;2023-02-11T11:07:58;8.30;99.90
7163;DHT22;3623;47.098;15.446;2023-02-11T11:10:39;8.70;99.90
7163;DHT22;3623;47.098;15.446;2023-02-11T11:13:27;8.80;99.90
7163;DHT22;3623;47.098;15.446;2023-02-11T11:16:15;8.90;99.90
7163;DHT22;3623;47.098;15.446;2023-02-11T11:18:44;8.80;99.90
7163;DHT22;3623;47.098;15.446;2023-02-11T11:21:13;8.50;99.90
7163;DHT22;3623;47.098;15.446;2023-02-11T11:23:49;8.60;99.90
7163;DHT22;3623;47.098;15.446;2023-02-11T11:26:18;8.30;99.90
7163;DHT22;3623;47.098;15.446;2023-02-11T11:28:59;8.30;99.90
7163;DHT22;3623;47.098;15.446;2023-02-11T11:31:30;7.70;99.90
7163;DHT22;3623;47.098;15.446;2023-02-11T11:34:01;7.70;99.90
7163;DHT22;3623;47.098;15.446;2023-02-11T11:36:34;7.70;99.90
7163;DHT22;3623;47.098;15.446;2023-02-11T11:39:21;7.90;99.90
7163;DHT22;3623;47.098;15.446;2023-02-11T11:41:51;7.80;99.90
7163;DHT22;3623;47.098;15.446;2023-02-11T11:44:24;8.40;99.90
7163;DHT22;3623;47.098;15.446;2023-02-11T11:49:55;9.90;99.90
7163;DHT22;3623;47.098;15.446;2023-02-11T11:52:39;10.60;99.90
7163;DHT22;3623;47.098;15.446;2023-02-11T11:55:15;10.90;99.10
7163;DHT22;3623;47.098;15.446;2023-02-11T11:57:43;12.20;98.90
7163;DHT22;3623;47.098;15.446;2023-02-11T12:00:16;13.00;98.80
7163;DHT22;3623;47.098;15.446;2023-02-11T12:03:03;13.90;98.30
7163;DHT22;3623;47.098;15.446;2023-02-11T12:05:36;15.20;96.50
7163;DHT22;3623;47.098;15.446;2023-02-11T12:08:15;15.20;94.60
7163;DHT22;3623;47.098;15.446;2023-02-11T12:11:00;16.10;94.40
7163;DHT22;3623;47.098;15.446;2023-02-11T12:13:39;16.90;93.00
7163;DHT22;3623;47.098;15.446;2023-02-11T12:16:18;16.30;92.30
7163;DHT22;3623;47.098;15.446;2023-02-11T12:19:14;15.70;93.50
7163;DHT22;3623;47.098;15.446;2023-02-11T12:21:54;16.50;93.40
7163;DHT22;3623;47.098;15.446;2023-02-11T12:27:30;17.60;93.60
7163;DHT22;3623;47.098;15.446;2023-02-11T12:30:06;17.60;92.80
7163;DHT22;3623;47.098;15.446;2023-02-11T12:32:38;16.80;93.10
7163;DHT22;3623;47.098;15.446;2023-02-11T12:35:17;16.80;92.30
7163;DHT22;3623;47.098;15.446;2023-02-11T12:38:09;14.60;92.60
7163;DHT22;3623;47.098;15.446;2023-02-11T12:40:45;12.40;94.00
7163;DHT22;3623;47.098;15.446;2023-02-11T12:43:20;12.20;93.90
7163;DHT22;3623;47.098;15.446;2023-02-11T12:46:06;12.50;94.20
7163;DHT22;3623;47.098;15.446;2023-02-11T12:51:40;14.00;93.80
7163;DHT22;3623;47.098;15.446;2023-02-11T12:54:20;14.60;93.50
7163;DHT22;3623;47.098;15.446;2023-02-11T12:56:54;15.10;93.50
7163;DHT22;3623;47.098;15.446;2023-02-11T12:59:43;13.60;93.60
7163;DHT22;3623;47.098;15.446;2023-02-11T13:02:18;13.90;94.30
7163;DHT22;3623;47.098;15.446;2023-02-11T13:04:50;14.10;93.70
7163;DHT22;3623;47.098;15.446;2023-02-11T13:07:21;15.00;92.60
7163;DHT22;3623;47.098;15.446;2023-02-11T13:09:53;16.20;92.70
7163;DHT22;3623;47.098;15.446;2023-02-11T13:12:22;17.10;91.40
7163;DHT22;3623;47.098;15.446;2023-02-11T13:15:13;17.20;90.00
7163;DHT22;3623;47.098;15.446;2023-02-11T13:17:44;17.30;90.80
7163;DHT22;3623;47.098;15.446;2023-02-11T13:20:22;17.20;91.00
7163;DHT22;3623;47.098;15.446;2023-02-11T13:22:55;16.70;91.00
7163;DHT22;3623;47.098;15.446;2023-02-11T13:25:30;16.80;91.10
7163;DHT22;3623;47.098;15.446;2023-02-11T13:28:05;16.50;90.70
7163;DHT22;3623;47.098;15.446;2023-02-11T13:30:38;16.50;90.80
7163;DHT22;3623;47.098;15.446;2023-02-11T13:33:20;15.60;90.40
7163;DHT22;3623;47.098;15.446;2023-02-11T13:36:14;15.80;90.60
7163;DHT22;3623;47.098;15.446;2023-02-11T13:38:51;14.50;91.70
7163;DHT22;3623;47.098;15.446;2023-02-11T13:41:22;14.50;92.50
7163;DHT22;3623;47.098;15.446;2023-02-11T13:44:04;15.20;92.50
7163;DHT22;3623;47.098;15.446;2023-02-11T13:49:33;15.20;92.20
7163;DHT22;3623;47.098;15.446;2023-02-11T13:52:03;13.10;92.40
7163;DHT22;3623;47.098;15.446;2023-02-11T13:54:34;12.50;92.80
7163;DHT22;3623;47.098;15.446;2023-02-11T13:57:29;11.90;92.40
7163;DHT22;3623;47.098;15.446;2023-02-11T13:59:57;11.40;93.60
7163;DHT22;3623;47.098;15.446;2023-02-11T14:02:28;10.50;93.30
7163;DHT22;3623;47.098;15.446;2023-02-11T14:05:27;10.00;93.70
7163;DHT22;3623;47.098;15.446;2023-02-11T14:08:22;10.00;94.40
7163;DHT22;3623;47.098;15.446;2023-02-11T14:11:42;9.90;95.30
7163;DHT22;3623;47.098;15.446;2023-02-11T14:14:21;9.70;95.20
7163;DHT22;3623;47.098;15.446;2023-02-11T14:17:29;9.80;95.40
7163;DHT22;3623;47.098;15.446;2023-02-11T14:19:57;9.90;95.60
7163;DHT22;3623;47.098;15.446;2023-02-11T14:22:28;9.80;94.60
7163;DHT22;3623;47.098;15.446;2023-02-11T14:24:58;9.90;94.60
7163;DHT22;3623;47.098;15.446;2023-02-11T14:27:34;9.90;95.20
7163;DHT22;3623;47.098;15.446;2023-02-11T14:33:46;9.70;95.20
7163;DHT22;3623;47.098;15.446;2023-02-11T14:36:39;9.30;94.50
7163;DHT22;3623;47.098;15.446;2023-02-11T14:39:20;9.10;95.20
7163;DHT22;3623;47.098;15.446;2023-02-11T14:41:50;8.90;95.20
7163;DHT22;3623;47.098;15.446;2023-02-11T14:44:20;8.80;94.90
7163;DHT22;3623;47.098;15.446;2023-02-11T14:46:48;8.70;95.20
7163;DHT22;3623;47.098;15.446;2023-02-11T14:49:23;8.70;94.10
7163;DHT22;3623;47.098;15.446;2023-02-11T14:51:53;8.50;94.60
7163;DHT22;3623;47.098;15.446;2023-02-11T14:54:25;8.30;94.80
7163;DHT22;3623;47.098;15.446;2023-02-11T14:57:08;8.10;94.90
7163;DHT22;3623;47.098;15.446;2023-02-11T14:59:35;8.10;95.20
7163;DHT22;3623;47.098;15.446;2023-02-11T15:02:12;8.10;95.40
7163;DHT22;3623;47.098;15.446;2023-02-11T15:04:45;8.00;95.20
7163;DHT22;3623;47.098;15.446;2023-02-11T15:07:12;8.10;94.80
7163;DHT22;3623;47.098;15.446;2023-02-11T15:09:44;8.00;95.10
7163;DHT22;3623;47.098;15.446;2023-02-11T15:12:16;7.90;95.40
7163;DHT22;3623;47.098;15.446;2023-02-11T15:14:46;7.90;95.10
7163;DHT22;3623;47.098;15.446;2023-02-11T15:17:17;7.90;95.50
7163;DHT22;3623;47.098;15.446;2023-02-11T15:19:48;7.90;95.00
7163;DHT22;3623;47.098;15.446;2023-02-11T15:22:19;7.80;95.20
7163;DHT22;3623;47.098;15.446;2023-02-11T15:24:59;7.80;95.30
7163;DHT22;3623;47.098;15.446;2023-02-11T15:27:37;7.80;95.00
7163;DHT22;3623;47.098;15.446;2023-02-11T15:30:26;7.70;94.70
7163;DHT22;3623;47.098;15.446;2023-02-11T15:32:55;7.70;94.40
7163;DHT22;3623;47.098;15.446;2023-02-11T15:35:26;7.70;93.10
7163;DHT22;3623;47.098;15.446;2023-02-11T15:37:54;7.60;93.00
7163;DHT22;3623;47.098;15.446;2023-02-11T15:40:26;7.30;93.10
7163;DHT22;3623;47.098;15.446;2023-02-11T15:42:56;7.30;93.30
7163;DHT22;3623;47.098;15.446;2023-02-11T15:45:25;7.30;93.50
7163;DHT22;3623;47.098;15.446;2023-02-11T15:48:00;7.30;93.50
7163;DHT22;3623;47.098;15.446;2023-02-11T15:50:30;7.30;93.50
7163;DHT22;3623;47.098;15.446;2023-02-11T15:53:03;7.20;93.50
7163;DHT22;3623;47.098;15.446;2023-02-11T15:55:34;7.30;93.90
7163;DHT22;3623;47.098;15.446;2023-02-11T15:58:01;7.30;93.70
7163;DHT22;3623;47.098;15.446;2023-02-11T16:00:32;7.10;94.50
7163;DHT22;3623;47.098;15.446;2023-02-11T16:03:00;7.10;94.00
7163;DHT22;3623;47.098;15.446;2023-02-11T16:05:30;7.00;95.70
7163;DHT22;3623;47.098;15.446;2023-02-11T16:07:59;6.90;96.00
7163;DHT22;3623;47.098;15.446;2023-02-11T16:10:28;7.00;95.50
7163;DHT22;3623;47.098;15.446;2023-02-11T16:13:03;6.90;95.00
7163;DHT22;3623;47.098;15.446;2023-02-11T16:15:42;6.70;95.00
7163;DHT22;3623;47.098;15.446;2023-02-11T16:18:18;6.70;95.40
7163;DHT22;3623;47.098;15.446;2023-02-11T16:20:49;6.60;95.20
7163;DHT22;3623;47.098;15.446;2023-02-11T16:23:21;6.50;95.80
7163;DHT22;3623;47.098;15.446;2023-02-11T16:25:53;6.50;95.80
7163;DHT22;3623;47.098;15.446;2023-02-11T16:28:23;6.50;96.10
7163;DHT22;3623;47.098;15.446;2023-02-11T16:30:52;6.10;95.90
7163;DHT22;3623;47.098;15.446;2023-02-11T16:33:20;6.00;96.20
7163;DHT22;3623;47.098;15.446;2023-02-11T16:35:47;5.90;96.50
7163;DHT22;3623;47.098;15.446;2023-02-11T16:38:14;5.70;95.70
7163;DHT22;3623;47.098;15.446;2023-02-11T16:40:42;5.80;95.90
7163;DHT22;3623;47.098;15.446;2023-02-11T16:43:11;5.70;96.00
7163;DHT22;3623;47.098;15.446;2023-02-11T16:45:39;5.50;96.10